Airfield :
LOGIN :

Register | Disclaimer

   EN    FR    IT 

 










Legend :    VFR   Marginal VFR   IFR   Intensive IFR   Very Intensive IFR
Visi :
Ceiling :
>= 8 km
>= 3000ft
5 to 8 km
1000 to 3000 ft
1500m to 5 km
500 to 1000 ft
800 to 1500m
200 to 500 ft
< 800m
< 200 ft
Symbols :   Thunderstorms  Fog  Heavy snow  Heavy precipitations  Wind > 20 kt
SIGMETs :     Misc.  Thunderstorms  Icing  Turbulence  Mountain Waves  Volcanic Ashes






- Airport Elevation : 755 ft
- IATA code : DRS


EDDC - Dresden Klotzsche

CURRENT METAR :
  • 260350Z 33004KT 9000 FEW005 BKN007 09/09 Q1032 BECMG BKN015

EXPIRED METARs :
  • 260320Z 34004KT 310V010 9999 SCT008 BKN020 10/09 Q1032
  • 260250Z 33004KT 290V350 9999 BKN011 10/09 Q1032
  • 260220Z 32005KT 290V350 9999 -RA BKN013 10/09 Q1032
  • 260150Z 31003KT 270V340 9999 BKN015 10/09 Q1032
  • 260120Z 30004KT 9999 BKN022 09/09 Q1032

TAF TAF EDDC
Valid from the 26 at 00:00 until the 27 at 00:00 UTC


252300Z 2600/2624 32004KT 6000 BKN015
TEMPO 2600/2606 4000 BR BKN005
BECMG 2609/2612 36009KT
BECMG 2616/2619 VRB03KT



MET'MAP, your aeronautical weather chart ! - Copyright ORBIFLY December 2007 - Disclaimer

ORBIFLY MET'MAP TEAM :

Programming & Development : Alexandra Zaïnal
Concept & original design : Baudouin d'Aumeries
Assistance for programming : Marc-Olivier Méhu
Technical & hardware support : Manuel Goepfert

Contact : metmap@orbifly.com




SOURCES & CREDITS :

   NOAA